sensor_id;sensor_type;location;lat;lon;timestamp;P1;durP1;ratioP1;P2;durP2;ratioP2
76115;SDS011;64847;45.778;12.802;2023-06-26T00:01:29;3.67;;;3.47;;
76115;SDS011;64847;45.778;12.802;2023-06-26T00:03:56;3.92;;;3.58;;
76115;SDS011;64847;45.778;12.802;2023-06-26T00:06:25;3.33;;;3.13;;
76115;SDS011;64847;45.778;12.802;2023-06-26T00:08:54;3.83;;;3.53;;
76115;SDS011;64847;45.778;12.802;2023-06-26T00:11:20;3.65;;;3.45;;
76115;SDS011;64847;45.778;12.802;2023-06-26T00:13:46;3.72;;;3.50;;
76115;SDS011;64847;45.778;12.802;2023-06-26T00:16:11;3.92;;;3.63;;
76115;SDS011;64847;45.778;12.802;2023-06-26T00:18:36;3.63;;;3.40;;
76115;SDS011;64847;45.778;12.802;2023-06-26T00:21:02;3.92;;;3.63;;
76115;SDS011;64847;45.778;12.802;2023-06-26T00:23:27;3.70;;;3.40;;
76115;SDS011;64847;45.778;12.802;2023-06-26T00:25:53;3.63;;;3.35;;
76115;SDS011;64847;45.778;12.802;2023-06-26T00:28:18;3.67;;;3.47;;
76115;SDS011;64847;45.778;12.802;2023-06-26T00:30:44;3.55;;;3.35;;
76115;SDS011;64847;45.778;12.802;2023-06-26T00:33:09;3.95;;;3.75;;
76115;SDS011;64847;45.778;12.802;2023-06-26T00:35:35;4.20;;;3.95;;
76115;SDS011;64847;45.778;12.802;2023-06-26T00:38:00;3.50;;;3.30;;
76115;SDS011;64847;45.778;12.802;2023-06-26T00:40:26;3.28;;;3.08;;
76115;SDS011;64847;45.778;12.802;2023-06-26T00:42:52;3.50;;;3.30;;
76115;SDS011;64847;45.778;12.802;2023-06-26T00:45:18;3.50;;;3.30;;
76115;SDS011;64847;45.778;12.802;2023-06-26T00:47:44;4.05;;;3.75;;
76115;SDS011;64847;45.778;12.802;2023-06-26T00:50:09;3.83;;;3.60;;
76115;SDS011;64847;45.778;12.802;2023-06-26T00:52:35;3.42;;;3.22;;
76115;SDS011;64847;45.778;12.802;2023-06-26T00:55:01;3.50;;;3.30;;
76115;SDS011;64847;45.778;12.802;2023-06-26T00:57:26;3.63;;;3.33;;
76115;SDS011;64847;45.778;12.802;2023-06-26T00:59:52;3.80;;;3.40;;
76115;SDS011;64847;45.778;12.802;2023-06-26T01:02:17;4.00;;;3.80;;
76115;SDS011;64847;45.778;12.802;2023-06-26T01:04:48;4.25;;;3.85;;
76115;SDS011;64847;45.778;12.802;2023-06-26T01:07:14;3.63;;;3.40;;
76115;SDS011;64847;45.778;12.802;2023-06-26T01:09:41;3.53;;;3.33;;
76115;SDS011;64847;45.778;12.802;2023-06-26T01:12:07;3.95;;;3.65;;
76115;SDS011;64847;45.778;12.802;2023-06-26T01:14:33;3.60;;;3.40;;
76115;SDS011;64847;45.778;12.802;2023-06-26T01:17:00;4.20;;;3.90;;
76115;SDS011;64847;45.778;12.802;2023-06-26T01:19:29;3.90;;;3.38;;
76115;SDS011;64847;45.778;12.802;2023-06-26T01:24:45;4.63;;;4.32;;
76115;SDS011;64847;45.778;12.802;2023-06-26T01:27:32;4.18;;;3.95;;
76115;SDS011;64847;45.778;12.802;2023-06-26T01:29:58;4.30;;;4.00;;
76115;SDS011;64847;45.778;12.802;2023-06-26T01:32:25;4.20;;;3.90;;
76115;SDS011;64847;45.778;12.802;2023-06-26T01:34:51;4.53;;;4.20;;
76115;SDS011;64847;45.778;12.802;2023-06-26T01:37:17;4.07;;;3.78;;
76115;SDS011;64847;45.778;12.802;2023-06-26T01:39:42;4.43;;;4.13;;
76115;SDS011;64847;45.778;12.802;2023-06-26T01:42:08;4.22;;;3.92;;
76115;SDS011;64847;45.778;12.802;2023-06-26T01:44:34;4.70;;;4.38;;
76115;SDS011;64847;45.778;12.802;2023-06-26T01:47:02;5.05;;;4.65;;
76115;SDS011;64847;45.778;12.802;2023-06-26T01:52:08;5.15;;;4.75;;
76115;SDS011;64847;45.778;12.802;2023-06-26T01:57:43;4.53;;;4.22;;
76115;SDS011;64847;45.778;12.802;2023-06-26T02:00:11;5.13;;;4.72;;
76115;SDS011;64847;45.778;12.802;2023-06-26T02:02:39;5.15;;;4.72;;
76115;SDS011;64847;45.778;12.802;2023-06-26T02:05:06;5.78;;;5.28;;
76115;SDS011;64847;45.778;12.802;2023-06-26T02:07:31;5.75;;;5.25;;
76115;SDS011;64847;45.778;12.802;2023-06-26T02:09:57;5.75;;;5.35;;
76115;SDS011;64847;45.778;12.802;2023-06-26T02:12:22;5.30;;;4.72;;
76115;SDS011;64847;45.778;12.802;2023-06-26T02:14:47;5.30;;;5.00;;
76115;SDS011;64847;45.778;12.802;2023-06-26T02:17:16;5.45;;;5.07;;
76115;SDS011;64847;45.778;12.802;2023-06-26T02:19:42;6.03;;;5.53;;
76115;SDS011;64847;45.778;12.802;2023-06-26T02:22:12;5.85;;;5.30;;
76115;SDS011;64847;45.778;12.802;2023-06-26T02:24:39;5.60;;;5.13;;
76115;SDS011;64847;45.778;12.802;2023-06-26T02:27:04;5.43;;;4.95;;
76115;SDS011;64847;45.778;12.802;2023-06-26T02:29:29;5.18;;;4.78;;
76115;SDS011;64847;45.778;12.802;2023-06-26T02:31:55;5.57;;;5.18;;
76115;SDS011;64847;45.778;12.802;2023-06-26T02:34:20;5.07;;;4.63;;
76115;SDS011;64847;45.778;12.802;2023-06-26T02:36:46;5.88;;;5.47;;
76115;SDS011;64847;45.778;12.802;2023-06-26T02:39:11;5.20;;;4.75;;
76115;SDS011;64847;45.778;12.802;2023-06-26T02:41:36;5.78;;;5.28;;
76115;SDS011;64847;45.778;12.802;2023-06-26T02:44:02;6.30;;;5.70;;
76115;SDS011;64847;45.778;12.802;2023-06-26T02:46:27;5.00;;;4.60;;
76115;SDS011;64847;45.778;12.802;2023-06-26T02:48:53;5.28;;;4.88;;
76115;SDS011;64847;45.778;12.802;2023-06-26T02:51:18;5.30;;;4.90;;
76115;SDS011;64847;45.778;12.802;2023-06-26T02:53:43;5.07;;;4.78;;
76115;SDS011;64847;45.778;12.802;2023-06-26T02:56:09;5.35;;;4.95;;
76115;SDS011;64847;45.778;12.802;2023-06-26T02:58:34;5.63;;;5.13;;
76115;SDS011;64847;45.778;12.802;2023-06-26T03:01:00;5.82;;;5.00;;
76115;SDS011;64847;45.778;12.802;2023-06-26T03:03:25;5.80;;;5.30;;
76115;SDS011;64847;45.778;12.802;2023-06-26T03:05:50;5.72;;;5.32;;
76115;SDS011;64847;45.778;12.802;2023-06-26T03:08:16;5.78;;;5.10;;
76115;SDS011;64847;45.778;12.802;2023-06-26T03:10:41;5.57;;;5.18;;
76115;SDS011;64847;45.778;12.802;2023-06-26T03:13:07;5.57;;;5.18;;
76115;SDS011;64847;45.778;12.802;2023-06-26T03:15:32;5.57;;;5.07;;
76115;SDS011;64847;45.778;12.802;2023-06-26T03:17:57;5.40;;;5.00;;
76115;SDS011;64847;45.778;12.802;2023-06-26T03:20:23;5.80;;;5.30;;
76115;SDS011;64847;45.778;12.802;2023-06-26T03:22:48;5.47;;;4.97;;
76115;SDS011;64847;45.778;12.802;2023-06-26T03:25:13;5.93;;;5.53;;
76115;SDS011;64847;45.778;12.802;2023-06-26T03:27:39;5.45;;;5.05;;
76115;SDS011;64847;45.778;12.802;2023-06-26T03:30:04;5.43;;;5.03;;
76115;SDS011;64847;45.778;12.802;2023-06-26T03:32:30;5.45;;;5.05;;
76115;SDS011;64847;45.778;12.802;2023-06-26T03:34:55;5.32;;;4.93;;
76115;SDS011;64847;45.778;12.802;2023-06-26T03:37:21;6.70;;;5.50;;
76115;SDS011;64847;45.778;12.802;2023-06-26T03:39:47;5.53;;;5.13;;
76115;SDS011;64847;45.778;12.802;2023-06-26T03:42:12;5.90;;;5.50;;
76115;SDS011;64847;45.778;12.802;2023-06-26T03:44:37;6.55;;;6.05;;
76115;SDS011;64847;45.778;12.802;2023-06-26T03:47:03;5.88;;;5.38;;
76115;SDS011;64847;45.778;12.802;2023-06-26T03:49:28;5.95;;;5.47;;
76115;SDS011;64847;45.778;12.802;2023-06-26T03:51:54;5.60;;;5.20;;
76115;SDS011;64847;45.778;12.802;2023-06-26T03:54:19;5.07;;;4.68;;
76115;SDS011;64847;45.778;12.802;2023-06-26T03:56:45;5.82;;;5.40;;
76115;SDS011;64847;45.778;12.802;2023-06-26T03:59:10;5.47;;;5.00;;
76115;SDS011;64847;45.778;12.802;2023-06-26T04:01:36;5.63;;;5.22;;
76115;SDS011;64847;45.778;12.802;2023-06-26T04:04:02;5.63;;;5.18;;
76115;SDS011;64847;45.778;12.802;2023-06-26T04:06:28;5.60;;;5.20;;
76115;SDS011;64847;45.778;12.802;2023-06-26T04:08:53;4.88;;;4.53;;
76115;SDS011;64847;45.778;12.802;2023-06-26T04:11:18;5.45;;;5.05;;
76115;SDS011;64847;45.778;12.802;2023-06-26T04:13:44;5.47;;;5.07;;
76115;SDS011;64847;45.778;12.802;2023-06-26T04:16:09;5.32;;;4.93;;
76115;SDS011;64847;45.778;12.802;2023-06-26T04:18:36;6.55;;;5.15;;
76115;SDS011;64847;45.778;12.802;2023-06-26T04:21:08;5.20;;;4.80;;
76115;SDS011;64847;45.778;12.802;2023-06-26T04:23:36;5.05;;;4.65;;
76115;SDS011;64847;45.778;12.802;2023-06-26T04:26:02;5.30;;;4.82;;
76115;SDS011;64847;45.778;12.802;2023-06-26T04:28:30;5.07;;;4.68;;
76115;SDS011;64847;45.778;12.802;2023-06-26T04:30:57;5.68;;;5.18;;
76115;SDS011;64847;45.778;12.802;2023-06-26T04:33:22;5.47;;;5.07;;
76115;SDS011;64847;45.778;12.802;2023-06-26T04:35:48;5.15;;;4.75;;
76115;SDS011;64847;45.778;12.802;2023-06-26T04:38:14;5.20;;;4.80;;
76115;SDS011;64847;45.778;12.802;2023-06-26T04:40:40;5.60;;;5.20;;
76115;SDS011;64847;45.778;12.802;2023-06-26T04:43:06;5.45;;;5.05;;
76115;SDS011;64847;45.778;12.802;2023-06-26T04:45:31;5.40;;;5.00;;
76115;SDS011;64847;45.778;12.802;2023-06-26T04:47:56;5.45;;;5.05;;
76115;SDS011;64847;45.778;12.802;2023-06-26T04:50:22;5.60;;;5.20;;
76115;SDS011;64847;45.778;12.802;2023-06-26T04:52:48;5.68;;;5.28;;
76115;SDS011;64847;45.778;12.802;2023-06-26T04:55:13;5.28;;;4.78;;
76115;SDS011;64847;45.778;12.802;2023-06-26T04:57:39;6.18;;;5.65;;
76115;SDS011;64847;45.778;12.802;2023-06-26T05:00:04;5.88;;;5.43;;
76115;SDS011;64847;45.778;12.802;2023-06-26T05:02:35;6.25;;;5.70;;
76115;SDS011;64847;45.778;12.802;2023-06-26T05:05:00;5.88;;;5.38;;
76115;SDS011;64847;45.778;12.802;2023-06-26T05:07:26;6.05;;;5.55;;
76115;SDS011;64847;45.778;12.802;2023-06-26T05:09:52;5.85;;;5.35;;
76115;SDS011;64847;45.778;12.802;2023-06-26T05:12:18;6.45;;;5.85;;
76115;SDS011;64847;45.778;12.802;2023-06-26T05:14:43;5.80;;;5.35;;
76115;SDS011;64847;45.778;12.802;2023-06-26T05:17:08;5.88;;;5.38;;
76115;SDS011;64847;45.778;12.802;2023-06-26T05:19:34;5.30;;;4.85;;
76115;SDS011;64847;45.778;12.802;2023-06-26T05:22:00;4.72;;;4.43;;
76115;SDS011;64847;45.778;12.802;2023-06-26T05:24:28;5.22;;;4.82;;
76115;SDS011;64847;45.778;12.802;2023-06-26T05:26:55;5.40;;;5.00;;
76115;SDS011;64847;45.778;12.802;2023-06-26T05:29:21;5.55;;;5.10;;
76115;SDS011;64847;45.778;12.802;2023-06-26T05:31:46;6.10;;;5.50;;
76115;SDS011;64847;45.778;12.802;2023-06-26T05:34:13;6.38;;;5.78;;
76115;SDS011;64847;45.778;12.802;2023-06-26T05:36:39;5.97;;;5.32;;
76115;SDS011;64847;45.778;12.802;2023-06-26T05:39:06;5.07;;;4.60;;
76115;SDS011;64847;45.778;12.802;2023-06-26T05:41:32;6.15;;;5.32;;
76115;SDS011;64847;45.778;12.802;2023-06-26T05:43:57;5.05;;;4.65;;
76115;SDS011;64847;45.778;12.802;2023-06-26T05:46:23;5.95;;;4.80;;
76115;SDS011;64847;45.778;12.802;2023-06-26T05:48:48;5.10;;;4.70;;
76115;SDS011;64847;45.778;12.802;2023-06-26T05:51:14;4.63;;;4.22;;
76115;SDS011;64847;45.778;12.802;2023-06-26T05:53:40;5.05;;;4.75;;
76115;SDS011;64847;45.778;12.802;2023-06-26T05:56:06;4.82;;;4.43;;
76115;SDS011;64847;45.778;12.802;2023-06-26T05:58:31;4.70;;;4.30;;
76115;SDS011;64847;45.778;12.802;2023-06-26T06:00:58;4.70;;;4.30;;
76115;SDS011;64847;45.778;12.802;2023-06-26T06:03:23;4.88;;;4.47;;
76115;SDS011;64847;45.778;12.802;2023-06-26T06:05:49;4.68;;;4.28;;
76115;SDS011;64847;45.778;12.802;2023-06-26T06:08:14;4.30;;;4.07;;
76115;SDS011;64847;45.778;12.802;2023-06-26T06:10:39;4.82;;;4.40;;
76115;SDS011;64847;45.778;12.802;2023-06-26T06:13:05;4.88;;;4.57;;
76115;SDS011;64847;45.778;12.802;2023-06-26T06:15:30;5.38;;;4.97;;
76115;SDS011;64847;45.778;12.802;2023-06-26T06:17:56;5.40;;;4.90;;
76115;SDS011;64847;45.778;12.802;2023-06-26T06:20:21;5.07;;;4.68;;
76115;SDS011;64847;45.778;12.802;2023-06-26T06:22:46;4.68;;;4.38;;
76115;SDS011;64847;45.778;12.802;2023-06-26T06:25:13;4.65;;;4.35;;
76115;SDS011;64847;45.778;12.802;2023-06-26T06:27:39;4.95;;;4.60;;
76115;SDS011;64847;45.778;12.802;2023-06-26T06:30:06;4.70;;;4.30;;
76115;SDS011;64847;45.778;12.802;2023-06-26T06:32:32;4.90;;;4.50;;
76115;SDS011;64847;45.778;12.802;2023-06-26T06:34:57;4.80;;;4.40;;
76115;SDS011;64847;45.778;12.802;2023-06-26T06:37:23;5.10;;;4.80;;
76115;SDS011;64847;45.778;12.802;2023-06-26T06:39:48;4.78;;;4.38;;
76115;SDS011;64847;45.778;12.802;2023-06-26T06:42:13;4.78;;;4.47;;
76115;SDS011;64847;45.778;12.802;2023-06-26T06:44:39;4.72;;;4.43;;
76115;SDS011;64847;45.778;12.802;2023-06-26T06:47:04;4.70;;;4.40;;
76115;SDS011;64847;45.778;12.802;2023-06-26T06:49:30;4.43;;;4.13;;
76115;SDS011;64847;45.778;12.802;2023-06-26T06:51:55;4.60;;;4.30;;
76115;SDS011;64847;45.778;12.802;2023-06-26T06:54:21;4.53;;;4.22;;
76115;SDS011;64847;45.778;12.802;2023-06-26T06:56:46;4.10;;;3.90;;
76115;SDS011;64847;45.778;12.802;2023-06-26T06:59:11;4.18;;;3.88;;
76115;SDS011;64847;45.778;12.802;2023-06-26T07:01:37;4.57;;;4.28;;
76115;SDS011;64847;45.778;12.802;2023-06-26T07:04:03;4.13;;;3.83;;
76115;SDS011;64847;45.778;12.802;2023-06-26T07:06:29;4.18;;;3.72;;
76115;SDS011;64847;45.778;12.802;2023-06-26T07:08:55;4.50;;;4.20;;
76115;SDS011;64847;45.778;12.802;2023-06-26T07:11:20;3.90;;;3.70;;
76115;SDS011;64847;45.778;12.802;2023-06-26T07:13:45;4.22;;;4.03;;
76115;SDS011;64847;45.778;12.802;2023-06-26T07:16:11;4.35;;;4.15;;
76115;SDS011;64847;45.778;12.802;2023-06-26T07:18:37;4.53;;;4.22;;
76115;SDS011;64847;45.778;12.802;2023-06-26T07:21:03;4.28;;;4.03;;
76115;SDS011;64847;45.778;12.802;2023-06-26T07:23:28;4.55;;;4.32;;
76115;SDS011;64847;45.778;12.802;2023-06-26T07:25:54;5.55;;;4.32;;
76115;SDS011;64847;45.778;12.802;2023-06-26T07:28:19;4.50;;;4.20;;
76115;SDS011;64847;45.778;12.802;2023-06-26T07:30:45;4.30;;;4.10;;
76115;SDS011;64847;45.778;12.802;2023-06-26T07:33:10;4.57;;;4.38;;
76115;SDS011;64847;45.778;12.802;2023-06-26T07:35:35;4.03;;;3.83;;
76115;SDS011;64847;45.778;12.802;2023-06-26T07:38:01;4.50;;;4.30;;
76115;SDS011;64847;45.778;12.802;2023-06-26T07:40:26;4.45;;;4.22;;
76115;SDS011;64847;45.778;12.802;2023-06-26T07:42:52;4.13;;;3.92;;
76115;SDS011;64847;45.778;12.802;2023-06-26T07:45:19;4.22;;;4.00;;
76115;SDS011;64847;45.778;12.802;2023-06-26T07:47:44;4.00;;;3.80;;
76115;SDS011;64847;45.778;12.802;2023-06-26T07:50:10;3.97;;;3.78;;
76115;SDS011;64847;45.778;12.802;2023-06-26T07:52:36;4.13;;;3.92;;
76115;SDS011;64847;45.778;12.802;2023-06-26T07:55:02;4.50;;;4.22;;
76115;SDS011;64847;45.778;12.802;2023-06-26T07:57:29;3.92;;;3.72;;
76115;SDS011;64847;45.778;12.802;2023-06-26T07:59:54;4.10;;;3.90;;
76115;SDS011;64847;45.778;12.802;2023-06-26T08:02:20;4.30;;;4.07;;
76115;SDS011;64847;45.778;12.802;2023-06-26T08:04:46;4.38;;;4.15;;
76115;SDS011;64847;45.778;12.802;2023-06-26T08:07:11;4.05;;;3.85;;
76115;SDS011;64847;45.778;12.802;2023-06-26T08:09:38;4.40;;;4.10;;
76115;SDS011;64847;45.778;12.802;2023-06-26T08:12:04;4.03;;;3.83;;
76115;SDS011;64847;45.778;12.802;2023-06-26T08:14:30;4.53;;;4.32;;
76115;SDS011;64847;45.778;12.802;2023-06-26T08:16:56;4.15;;;3.95;;
76115;SDS011;64847;45.778;12.802;2023-06-26T08:19:22;4.15;;;3.95;;
76115;SDS011;64847;45.778;12.802;2023-06-26T08:21:47;4.75;;;4.45;;
76115;SDS011;64847;45.778;12.802;2023-06-26T08:24:13;3.85;;;3.75;;
76115;SDS011;64847;45.778;12.802;2023-06-26T08:26:41;4.35;;;4.15;;
76115;SDS011;64847;45.778;12.802;2023-06-26T08:29:06;4.28;;;4.07;;
76115;SDS011;64847;45.778;12.802;2023-06-26T08:31:34;4.53;;;4.32;;
76115;SDS011;64847;45.778;12.802;2023-06-26T08:34:04;4.50;;;4.30;;
76115;SDS011;64847;45.778;12.802;2023-06-26T08:36:30;4.15;;;3.95;;
76115;SDS011;64847;45.778;12.802;2023-06-26T08:38:55;4.50;;;4.22;;
76115;SDS011;64847;45.778;12.802;2023-06-26T08:41:21;4.90;;;4.60;;
76115;SDS011;64847;45.778;12.802;2023-06-26T08:43:46;4.05;;;3.85;;
76115;SDS011;64847;45.778;12.802;2023-06-26T08:46:13;4.13;;;3.97;;
76115;SDS011;64847;45.778;12.802;2023-06-26T08:48:39;4.78;;;4.50;;
76115;SDS011;64847;45.778;12.802;2023-06-26T08:51:07;4.38;;;4.18;;
76115;SDS011;64847;45.778;12.802;2023-06-26T08:53:43;4.65;;;4.45;;
76115;SDS011;64847;45.778;12.802;2023-06-26T08:56:32;4.28;;;4.07;;
76115;SDS011;64847;45.778;12.802;2023-06-26T08:59:01;4.40;;;4.10;;
76115;SDS011;64847;45.778;12.802;2023-06-26T09:01:26;4.32;;;4.13;;
76115;SDS011;64847;45.778;12.802;2023-06-26T09:03:52;4.45;;;4.25;;
76115;SDS011;64847;45.778;12.802;2023-06-26T09:06:18;4.50;;;4.10;;
76115;SDS011;64847;45.778;12.802;2023-06-26T09:08:43;4.40;;;4.05;;
76115;SDS011;64847;45.778;12.802;2023-06-26T09:11:09;4.50;;;4.30;;
76115;SDS011;64847;45.778;12.802;2023-06-26T09:13:34;4.22;;;4.03;;
76115;SDS011;64847;45.778;12.802;2023-06-26T09:16:03;4.45;;;4.22;;
76115;SDS011;64847;45.778;12.802;2023-06-26T09:18:31;4.38;;;4.13;;
76115;SDS011;64847;45.778;12.802;2023-06-26T09:20:57;4.40;;;4.10;;
76115;SDS011;64847;45.778;12.802;2023-06-26T09:23:23;4.50;;;4.30;;
76115;SDS011;64847;45.778;12.802;2023-06-26T09:25:48;4.45;;;4.25;;
76115;SDS011;64847;45.778;12.802;2023-06-26T09:28:16;4.07;;;3.88;;
76115;SDS011;64847;45.778;12.802;2023-06-26T09:30:42;4.07;;;3.88;;
76115;SDS011;64847;45.778;12.802;2023-06-26T09:33:17;4.38;;;4.07;;
76115;SDS011;64847;45.778;12.802;2023-06-26T09:35:44;4.28;;;3.97;;
76115;SDS011;64847;45.778;12.802;2023-06-26T09:38:10;3.75;;;3.60;;
76115;SDS011;64847;45.778;12.802;2023-06-26T09:40:36;4.40;;;4.20;;
76115;SDS011;64847;45.778;12.802;2023-06-26T09:43:06;5.10;;;4.80;;
76115;SDS011;64847;45.778;12.802;2023-06-26T09:45:33;4.60;;;4.40;;
76115;SDS011;64847;45.778;12.802;2023-06-26T09:48:05;4.47;;;4.10;;
76115;SDS011;64847;45.778;12.802;2023-06-26T09:50:33;4.40;;;4.20;;
76115;SDS011;64847;45.778;12.802;2023-06-26T09:53:06;4.22;;;4.03;;
76115;SDS011;64847;45.778;12.802;2023-06-26T09:55:36;5.15;;;4.30;;
76115;SDS011;64847;45.778;12.802;2023-06-26T09:58:02;4.05;;;3.85;;
76115;SDS011;64847;45.778;12.802;2023-06-26T10:00:28;4.80;;;4.45;;
76115;SDS011;64847;45.778;12.802;2023-06-26T10:02:54;4.22;;;4.03;;
76115;SDS011;64847;45.778;12.802;2023-06-26T10:05:20;4.38;;;4.18;;
76115;SDS011;64847;45.778;12.802;2023-06-26T10:07:45;4.85;;;4.50;;
76115;SDS011;64847;45.778;12.802;2023-06-26T10:10:11;4.68;;;4.38;;
76115;SDS011;64847;45.778;12.802;2023-06-26T10:12:37;4.43;;;4.22;;
76115;SDS011;64847;45.778;12.802;2023-06-26T10:15:02;4.65;;;4.40;;
76115;SDS011;64847;45.778;12.802;2023-06-26T10:17:30;4.78;;;4.53;;
76115;SDS011;64847;45.778;12.802;2023-06-26T10:20:00;4.40;;;4.20;;
76115;SDS011;64847;45.778;12.802;2023-06-26T10:22:29;4.28;;;4.07;;
76115;SDS011;64847;45.778;12.802;2023-06-26T10:24:55;4.35;;;4.15;;
76115;SDS011;64847;45.778;12.802;2023-06-26T10:27:24;4.82;;;4.50;;
76115;SDS011;64847;45.778;12.802;2023-06-26T10:29:53;3.90;;;3.70;;
76115;SDS011;64847;45.778;12.802;2023-06-26T10:32:20;4.30;;;4.10;;
76115;SDS011;64847;45.778;12.802;2023-06-26T10:34:46;4.43;;;4.22;;
76115;SDS011;64847;45.778;12.802;2023-06-26T10:37:12;4.47;;;4.20;;
76115;SDS011;64847;45.778;12.802;2023-06-26T10:39:48;4.13;;;3.92;;
76115;SDS011;64847;45.778;12.802;2023-06-26T10:42:18;4.57;;;4.35;;
76115;SDS011;64847;45.778;12.802;2023-06-26T10:44:44;4.50;;;4.30;;
76115;SDS011;64847;45.778;12.802;2023-06-26T10:47:11;4.20;;;4.00;;
76115;SDS011;64847;45.778;12.802;2023-06-26T10:52:44;4.43;;;4.20;;
76115;SDS011;64847;45.778;12.802;2023-06-26T10:55:09;4.35;;;4.15;;
76115;SDS011;64847;45.778;12.802;2023-06-26T10:57:37;4.95;;;4.60;;
76115;SDS011;64847;45.778;12.802;2023-06-26T11:00:09;4.43;;;4.03;;
76115;SDS011;64847;45.778;12.802;2023-06-26T11:02:51;4.25;;;4.05;;
76115;SDS011;64847;45.778;12.802;2023-06-26T11:05:28;4.43;;;4.20;;
76115;SDS011;64847;45.778;12.802;2023-06-26T11:08:04;4.45;;;4.13;;
76115;SDS011;64847;45.778;12.802;2023-06-26T11:10:49;4.90;;;4.50;;
76115;SDS011;64847;45.778;12.802;2023-06-26T11:13:17;4.47;;;4.28;;
76115;SDS011;64847;45.778;12.802;2023-06-26T11:15:43;4.35;;;4.15;;
76115;SDS011;64847;45.778;12.802;2023-06-26T11:18:09;4.65;;;4.35;;
76115;SDS011;64847;45.778;12.802;2023-06-26T11:20:35;4.38;;;4.07;;
76115;SDS011;64847;45.778;12.802;2023-06-26T11:23:01;4.65;;;4.35;;
76115;SDS011;64847;45.778;12.802;2023-06-26T11:25:27;4.40;;;4.20;;
76115;SDS011;64847;45.778;12.802;2023-06-26T11:27:53;4.45;;;4.15;;
76115;SDS011;64847;45.778;12.802;2023-06-26T11:30:25;4.25;;;4.05;;
76115;SDS011;64847;45.778;12.802;2023-06-26T11:32:51;4.40;;;4.20;;
76115;SDS011;64847;45.778;12.802;2023-06-26T11:35:23;4.15;;;3.95;;
76115;SDS011;64847;45.778;12.802;2023-06-26T11:38:04;4.18;;;3.88;;
76115;SDS011;64847;45.778;12.802;2023-06-26T11:40:33;4.38;;;4.18;;
76115;SDS011;64847;45.778;12.802;2023-06-26T11:43:00;4.60;;;4.30;;
76115;SDS011;64847;45.778;12.802;2023-06-26T11:45:29;4.95;;;4.65;;
76115;SDS011;64847;45.778;12.802;2023-06-26T11:47:58;4.70;;;4.47;;
76115;SDS011;64847;45.778;12.802;2023-06-26T11:50:24;4.53;;;4.22;;
76115;SDS011;64847;45.778;12.802;2023-06-26T11:52:54;4.38;;;4.18;;
76115;SDS011;64847;45.778;12.802;2023-06-26T11:55:21;4.40;;;4.20;;
76115;SDS011;64847;45.778;12.802;2023-06-26T11:57:50;4.30;;;4.10;;
76115;SDS011;64847;45.778;12.802;2023-06-26T12:00:17;4.00;;;3.80;;
76115;SDS011;64847;45.778;12.802;2023-06-26T12:02:44;4.03;;;3.83;;
76115;SDS011;64847;45.778;12.802;2023-06-26T12:05:11;4.38;;;4.15;;
76115;SDS011;64847;45.778;12.802;2023-06-26T12:07:43;4.25;;;4.05;;
76115;SDS011;64847;45.778;12.802;2023-06-26T12:10:11;4.30;;;4.10;;
76115;SDS011;64847;45.778;12.802;2023-06-26T12:12:36;5.00;;;4.60;;
76115;SDS011;64847;45.778;12.802;2023-06-26T12:15:02;4.70;;;4.40;;
76115;SDS011;64847;45.778;12.802;2023-06-26T12:17:28;4.55;;;4.35;;
76115;SDS011;64847;45.778;12.802;2023-06-26T12:19:54;4.82;;;4.43;;
76115;SDS011;64847;45.778;12.802;2023-06-26T12:22:19;4.47;;;4.28;;
76115;SDS011;64847;45.778;12.802;2023-06-26T12:24:45;4.88;;;4.60;;
76115;SDS011;64847;45.778;12.802;2023-06-26T12:27:12;5.10;;;4.80;;
76115;SDS011;64847;45.778;12.802;2023-06-26T12:29:39;4.93;;;4.60;;
76115;SDS011;64847;45.778;12.802;2023-06-26T12:32:09;5.03;;;4.72;;
76115;SDS011;64847;45.778;12.802;2023-06-26T12:34:37;5.15;;;4.75;;
76115;SDS011;64847;45.778;12.802;2023-06-26T12:37:10;5.05;;;4.80;;
76115;SDS011;64847;45.778;12.802;2023-06-26T12:42:15;5.15;;;4.85;;
76115;SDS011;64847;45.778;12.802;2023-06-26T12:44:41;5.25;;;4.95;;
76115;SDS011;64847;45.778;12.802;2023-06-26T12:47:07;5.15;;;4.85;;
76115;SDS011;64847;45.778;12.802;2023-06-26T12:49:33;4.90;;;4.65;;
76115;SDS011;64847;45.778;12.802;2023-06-26T12:52:03;4.53;;;4.32;;
76115;SDS011;64847;45.778;12.802;2023-06-26T12:54:29;5.10;;;4.88;;
76115;SDS011;64847;45.778;12.802;2023-06-26T12:56:55;4.65;;;4.45;;
76115;SDS011;64847;45.778;12.802;2023-06-26T12:59:21;4.97;;;4.68;;
76115;SDS011;64847;45.778;12.802;2023-06-26T13:01:47;5.25;;;4.95;;
76115;SDS011;64847;45.778;12.802;2023-06-26T13:04:12;5.18;;;4.88;;
76115;SDS011;64847;45.778;12.802;2023-06-26T13:06:38;5.00;;;4.70;;
76115;SDS011;64847;45.778;12.802;2023-06-26T13:09:03;5.63;;;5.30;;
76115;SDS011;64847;45.778;12.802;2023-06-26T13:11:29;5.28;;;5.00;;
76115;SDS011;64847;45.778;12.802;2023-06-26T13:13:55;5.03;;;4.80;;
76115;SDS011;64847;45.778;12.802;2023-06-26T13:16:21;5.25;;;4.90;;
76115;SDS011;64847;45.778;12.802;2023-06-26T13:18:46;5.47;;;5.13;;
76115;SDS011;64847;45.778;12.802;2023-06-26T13:21:12;5.13;;;4.82;;
76115;SDS011;64847;45.778;12.802;2023-06-26T13:23:38;5.32;;;4.93;;
76115;SDS011;64847;45.778;12.802;2023-06-26T13:26:04;5.40;;;5.00;;
76115;SDS011;64847;45.778;12.802;2023-06-26T13:28:29;5.20;;;4.93;;
76115;SDS011;64847;45.778;12.802;2023-06-26T13:30:55;5.13;;;4.72;;
76115;SDS011;64847;45.778;12.802;2023-06-26T13:33:20;5.00;;;4.70;;
76115;SDS011;64847;45.778;12.802;2023-06-26T13:35:46;4.57;;;4.35;;
76115;SDS011;64847;45.778;12.802;2023-06-26T13:38:11;4.78;;;4.47;;
76115;SDS011;64847;45.778;12.802;2023-06-26T13:40:37;4.80;;;4.50;;
76115;SDS011;64847;45.778;12.802;2023-06-26T13:43:02;5.10;;;4.80;;
76115;SDS011;64847;45.778;12.802;2023-06-26T13:45:28;4.93;;;4.63;;
76115;SDS011;64847;45.778;12.802;2023-06-26T13:47:54;4.45;;;4.25;;
76115;SDS011;64847;45.778;12.802;2023-06-26T13:50:19;4.50;;;4.30;;
76115;SDS011;64847;45.778;12.802;2023-06-26T13:52:45;5.13;;;4.82;;
76115;SDS011;64847;45.778;12.802;2023-06-26T13:55:10;4.72;;;4.45;;
76115;SDS011;64847;45.778;12.802;2023-06-26T13:57:36;4.32;;;3.97;;
76115;SDS011;64847;45.778;12.802;2023-06-26T14:00:06;4.97;;;4.68;;
76115;SDS011;64847;45.778;12.802;2023-06-26T14:02:32;4.90;;;4.65;;
76115;SDS011;64847;45.778;12.802;2023-06-26T14:04:58;4.05;;;3.78;;
76115;SDS011;64847;45.778;12.802;2023-06-26T14:07:23;4.30;;;4.10;;
76115;SDS011;64847;45.778;12.802;2023-06-26T14:09:50;4.25;;;4.05;;
76115;SDS011;64847;45.778;12.802;2023-06-26T14:12:15;4.35;;;4.15;;
76115;SDS011;64847;45.778;12.802;2023-06-26T14:14:41;4.50;;;4.20;;
76115;SDS011;64847;45.778;12.802;2023-06-26T14:17:07;4.25;;;4.05;;
76115;SDS011;64847;45.778;12.802;2023-06-26T14:19:34;5.05;;;4.75;;
76115;SDS011;64847;45.778;12.802;2023-06-26T14:21:59;4.45;;;4.25;;
76115;SDS011;64847;45.778;12.802;2023-06-26T14:24:26;4.68;;;4.43;;
76115;SDS011;64847;45.778;12.802;2023-06-26T14:26:51;3.85;;;3.65;;
76115;SDS011;64847;45.778;12.802;2023-06-26T14:29:17;4.53;;;4.22;;
76115;SDS011;64847;45.778;12.802;2023-06-26T14:31:42;4.45;;;4.10;;
76115;SDS011;64847;45.778;12.802;2023-06-26T14:34:08;4.38;;;4.18;;
76115;SDS011;64847;45.778;12.802;2023-06-26T14:36:34;4.50;;;4.20;;
76115;SDS011;64847;45.778;12.802;2023-06-26T14:39:00;4.30;;;4.10;;
76115;SDS011;64847;45.778;12.802;2023-06-26T14:41:26;3.75;;;3.45;;
76115;SDS011;64847;45.778;12.802;2023-06-26T14:43:51;4.05;;;3.85;;